Time;durP1;ratioP1;P1;durP2;ratioP2;P2;SDS_P1;SDS_P2;PMS_P1;PMS_P2;Temp;Humidity;BMP_temperature;BMP_pressure;BME280_temperature;BME280_humidity;BME280_pressure;Samples;Min_cycle;Max_cycle;Signal;HPM_P1;HPM_P2
2022/07/13 00:00:33;;;;;;;;;;;;;;;27.73;37.16;101039.35;105157;1300;62106;-81
2022/07/13 00:02:59;;;;;;;;;;;;;;;27.73;37.29;101038.30;105242;1300;62029;-81
2022/07/13 00:05:24;;;;;;;;;;;;;;;27.72;36.96;101041.21;105264;1300;62060;-81
2022/07/13 00:07:50;;;;;;;;;;;;;;;27.72;37.35;101040.69;105165;1300;62578;-81
2022/07/13 00:10:15;;;;;;;;;;;;;;;27.73;37.02;101046.44;105212;1299;62054;-81
2022/07/13 00:12:41;;;;;;;;;;;;;;;27.72;36.91;101049.71;105118;1301;62253;-81
2022/07/13 00:15:06;;;;;;;;;;;;;;;27.72;37.43;101050.25;105222;1297;62109;-81
2022/07/13 00:17:32;;;;;;;;;;;;;;;27.73;37.20;101051.86;105274;1299;61925;-81
2022/07/13 00:19:57;;;;;;;;;;;;;;;27.72;37.25;101055.14;105232;1299;62508;-81
2022/07/13 00:22:23;;;;;;;;;;;;;;;27.72;37.05;101054.09;105236;1299;62082;-81
2022/07/13 00:24:48;;;;;;;;;;;;;;;27.72;37.15;101052.32;105245;1300;62174;-81
2022/07/13 00:27:14;;;;;;;;;;;;;;;27.72;37.20;101051.02;105223;1299;62055;-81
2022/07/13 00:29:39;;;;;;;;;;;;;;;27.72;37.13;101047.95;105287;1299;62085;-81
2022/07/13 00:32:05;;;;;;;;;;;;;;;27.72;37.02;101054.11;105241;1300;62063;-81
2022/07/13 00:34:32;;;;;;;;;;;;;;;27.72;37.12;101054.45;105206;1297;62080;-81
2022/07/13 00:36:58;;;;;;;;;;;;;;;27.72;37.15;101056.09;105160;1300;76225;-81
2022/07/13 00:39:23;;;;;;;;;;;;;;;27.71;37.11;101054.31;105242;1299;62817;-81
2022/07/13 00:41:49;;;;;;;;;;;;;;;27.71;37.15;101057.92;105253;1299;62075;-81
2022/07/13 00:44:15;;;;;;;;;;;;;;;27.72;37.27;101060.42;105259;1299;62117;-81
2022/07/13 00:46:50;;;;;;;;;;;;;;;27.71;37.15;101061.73;105156;1300;62081;-81
2022/07/13 00:49:16;;;;;;;;;;;;;;;27.72;37.32;101061.87;105270;1299;61970;-81
2022/07/13 00:51:49;;;;;;;;;;;;;;;27.71;37.37;101061.56;105222;1299;62659;-81
2022/07/13 00:54:16;;;;;;;;;;;;;;;27.71;37.38;101058.85;105162;1300;62068;-81
2022/07/13 00:56:41;;;;;;;;;;;;;;;27.71;37.22;101057.39;105223;1299;61970;-81
2022/07/13 00:59:07;;;;;;;;;;;;;;;27.71;37.37;101058.00;105240;1299;62078;-81
2022/07/13 01:01:33;;;;;;;;;;;;;;;27.71;37.28;101062.64;105249;1299;62188;-81
2022/07/13 01:03:58;;;;;;;;;;;;;;;27.71;37.16;101062.84;105165;1299;62053;-81
2022/07/13 01:06:24;;;;;;;;;;;;;;;27.71;37.30;101061.58;105201;1300;72762;-81
2022/07/13 01:08:49;;;;;;;;;;;;;;;27.71;37.36;101059.65;105205;1300;62213;-81
2022/07/13 01:11:15;;;;;;;;;;;;;;;27.70;37.41;101059.67;105243;1299;62103;-81
2022/07/13 01:13:40;;;;;;;;;;;;;;;27.71;37.30;101055.66;105118;1302;62013;-81
2022/07/13 01:16:08;;;;;;;;;;;;;;;27.70;37.48;101045.38;105237;1299;62062;-81
2022/07/13 01:18:33;;;;;;;;;;;;;;;27.70;37.27;101039.27;105244;1299;74297;-81
2022/07/13 01:20:59;;;;;;;;;;;;;;;27.70;37.37;101045.09;105226;1299;62242;-81
2022/07/13 01:23:25;;;;;;;;;;;;;;;27.70;37.32;101048.30;105249;1300;62096;-81
2022/07/13 01:25:50;;;;;;;;;;;;;;;27.70;37.22;101042.73;105240;1299;62049;-81
2022/07/13 01:28:15;;;;;;;;;;;;;;;27.69;37.22;101042.04;105233;1300;62192;-81
2022/07/13 01:30:41;;;;;;;;;;;;;;;27.69;37.33;101042.24;105164;1300;73673;-81
2022/07/13 01:33:06;;;;;;;;;;;;;;;27.69;37.29;101038.80;105214;1300;62402;-81
2022/07/13 01:35:32;;;;;;;;;;;;;;;27.69;37.33;101043.17;105223;1299;62258;-81
2022/07/13 01:37:57;;;;;;;;;;;;;;;27.69;37.33;101040.67;105243;1299;62456;-81
2022/07/13 01:40:23;;;;;;;;;;;;;;;27.68;37.27;101042.73;105271;1299;62079;-81
2022/07/13 01:42:49;;;;;;;;;;;;;;;27.68;37.27;101038.77;105261;1299;69873;-81
2022/07/13 01:45:15;;;;;;;;;;;;;;;27.68;37.33;101041.83;105212;1299;63271;-81
2022/07/13 01:47:41;;;;;;;;;;;;;;;27.67;37.39;101037.00;105225;1300;62049;-81
2022/07/13 01:50:07;;;;;;;;;;;;;;;27.68;37.28;101036.09;105183;1300;62040;-81
2022/07/13 01:52:33;;;;;;;;;;;;;;;27.67;37.34;101031.97;105176;1300;62083;-81
2022/07/13 01:54:59;;;;;;;;;;;;;;;27.67;37.24;101036.48;105231;1299;62046;-81
2022/07/13 01:57:24;;;;;;;;;;;;;;;27.67;37.25;101043.39;105221;1300;62593;-81
2022/07/13 01:59:49;;;;;;;;;;;;;;;27.66;37.40;101043.25;105284;1299;62087;-80
2022/07/13 02:02:15;;;;;;;;;;;;;;;27.66;37.33;101045.95;105268;1299;62116;-80
2022/07/13 02:04:40;;;;;;;;;;;;;;;27.66;37.40;101043.95;105249;1298;62079;-80
2022/07/13 02:07:06;;;;;;;;;;;;;;;27.66;37.29;101045.08;105214;1300;62149;-81
2022/07/13 02:09:32;;;;;;;;;;;;;;;27.66;37.45;101045.82;105184;1300;62197;-81
2022/07/13 02:11:58;;;;;;;;;;;;;;;27.66;37.37;101041.29;105141;1299;62097;-81
2022/07/13 02:14:23;;;;;;;;;;;;;;;27.66;37.40;101040.23;105177;1300;62058;-81
2022/07/13 02:16:49;;;;;;;;;;;;;;;27.65;37.43;101032.89;105255;1300;62093;-81
2022/07/13 02:19:14;;;;;;;;;;;;;;;27.65;37.34;101031.59;105263;1299;62177;-81
2022/07/13 02:21:40;;;;;;;;;;;;;;;27.65;37.42;101027.84;105264;1299;62100;-81
2022/07/13 02:24:05;;;;;;;;;;;;;;;27.65;37.46;101030.16;105281;1299;62030;-81
2022/07/13 02:26:31;;;;;;;;;;;;;;;27.64;37.63;101028.07;105282;1299;62053;-80
2022/07/13 02:28:57;;;;;;;;;;;;;;;27.64;37.50;101035.30;105262;1299;62053;-81
2022/07/13 02:31:22;;;;;;;;;;;;;;;27.64;37.45;101032.98;105160;1300;62058;-81
2022/07/13 02:33:48;;;;;;;;;;;;;;;27.64;37.42;101040.38;105157;1300;62552;-81
2022/07/13 02:36:13;;;;;;;;;;;;;;;27.64;37.36;101043.49;105242;1300;62042;-81
2022/07/13 02:38:39;;;;;;;;;;;;;;;27.64;37.58;101045.31;105238;1299;61960;-81
2022/07/13 02:41:05;;;;;;;;;;;;;;;27.63;37.57;101042.63;105185;1300;62091;-81
2022/07/13 02:43:30;;;;;;;;;;;;;;;27.63;37.51;101042.05;105171;1300;63282;-81
2022/07/13 02:45:57;;;;;;;;;;;;;;;27.64;37.48;101040.64;105244;1299;62086;-81
2022/07/13 02:48:23;;;;;;;;;;;;;;;27.64;37.34;101041.19;105252;1299;62183;-81
2022/07/13 02:50:48;;;;;;;;;;;;;;;27.63;37.43;101039.55;105175;1299;62103;-80
2022/07/13 02:53:14;;;;;;;;;;;;;;;27.63;37.55;101039.23;105275;1299;62212;-80
2022/07/13 02:55:39;;;;;;;;;;;;;;;27.63;37.59;101045.72;105226;1300;62064;-81
2022/07/13 02:58:05;;;;;;;;;;;;;;;27.63;37.51;101043.21;105258;1299;62077;-81
2022/07/13 03:00:30;;;;;;;;;;;;;;;27.63;37.76;101043.58;105179;1300;62056;-81
2022/07/13 03:02:55;;;;;;;;;;;;;;;27.63;37.55;101042.69;105270;1300;63361;-81
2022/07/13 03:05:23;;;;;;;;;;;;;;;27.63;37.49;101043.41;105252;1299;74252;-81
2022/07/13 03:07:49;;;;;;;;;;;;;;;27.63;37.56;101044.67;105185;1299;74435;-81
2022/07/13 03:10:15;;;;;;;;;;;;;;;27.63;37.65;101044.84;105223;1299;62107;-81
2022/07/13 03:12:40;;;;;;;;;;;;;;;27.63;37.67;101047.55;105040;1302;62209;-81
2022/07/13 03:15:06;;;;;;;;;;;;;;;27.63;37.36;101052.59;105093;1302;62066;-81
2022/07/13 03:17:31;;;;;;;;;;;;;;;27.63;37.52;101052.77;105250;1299;62166;-81
2022/07/13 03:19:57;;;;;;;;;;;;;;;27.63;37.65;101049.37;105264;1299;62488;-81
2022/07/13 03:22:23;;;;;;;;;;;;;;;27.63;37.45;101054.93;105245;1300;62374;-81
2022/07/13 03:24:49;;;;;;;;;;;;;;;27.63;37.41;101053.15;105252;1299;62776;-81
2022/07/13 03:27:15;;;;;;;;;;;;;;;27.64;37.37;101053.66;105209;1299;61978;-81
2022/07/13 03:29:41;;;;;;;;;;;;;;;27.64;37.45;101051.83;105255;1299;62062;-81
2022/07/13 03:32:06;;;;;;;;;;;;;;;27.64;37.32;101046.78;105239;1299;62085;-81
2022/07/13 03:34:32;;;;;;;;;;;;;;;27.64;37.47;101051.63;105270;1299;62174;-81
2022/07/13 03:36:57;;;;;;;;;;;;;;;27.64;37.60;101049.11;105240;1299;61954;-81
2022/07/13 03:39:22;;;;;;;;;;;;;;;27.63;37.35;101051.14;105235;1299;62087;-81
2022/07/13 03:41:48;;;;;;;;;;;;;;;27.64;37.40;101053.80;105167;1300;62093;-81
2022/07/13 03:44:13;;;;;;;;;;;;;;;27.64;37.67;101055.45;105259;1298;62082;-81
2022/07/13 03:46:40;;;;;;;;;;;;;;;27.64;37.42;101056.67;105161;1300;62014;-81
2022/07/13 03:49:05;;;;;;;;;;;;;;;27.64;37.60;101054.71;105182;1300;62002;-80
2022/07/13 03:51:31;;;;;;;;;;;;;;;27.64;37.37;101053.42;105151;1302;62156;-80
2022/07/13 03:53:56;;;;;;;;;;;;;;;27.64;37.58;101054.88;105289;1299;62084;-81
2022/07/13 03:56:22;;;;;;;;;;;;;;;27.64;37.28;101051.77;105240;1299;62772;-81
2022/07/13 03:58:47;;;;;;;;;;;;;;;27.64;37.47;101056.10;105274;1300;62165;-81
2022/07/13 04:01:13;;;;;;;;;;;;;;;27.64;37.50;101059.70;105030;1300;62529;-81
2022/07/13 04:03:38;;;;;;;;;;;;;;;27.64;37.49;101058.98;105208;1299;62087;-81
2022/07/13 04:06:04;;;;;;;;;;;;;;;27.64;37.47;101054.88;105211;1299;62123;-81
2022/07/13 04:08:29;;;;;;;;;;;;;;;27.63;37.49;101054.19;105252;1299;62075;-81
2022/07/13 04:10:56;;;;;;;;;;;;;;;27.64;37.46;101054.91;105261;1299;62209;-81
2022/07/13 04:13:21;;;;;;;;;;;;;;;27.63;37.43;101057.15;105227;1300;62056;-81
2022/07/13 04:15:46;;;;;;;;;;;;;;;27.63;37.60;101059.86;105212;1300;62180;-81
2022/07/13 04:18:12;;;;;;;;;;;;;;;27.63;37.59;101058.42;105235;1299;62060;-81
2022/07/13 04:20:37;;;;;;;;;;;;;;;27.63;37.60;101058.45;105237;1298;62050;-81
2022/07/13 04:23:03;;;;;;;;;;;;;;;27.63;37.61;101061.64;105206;1300;62084;-81
2022/07/13 04:25:28;;;;;;;;;;;;;;;27.63;37.48;101060.95;105186;1302;62092;-81
2022/07/13 04:27:54;;;;;;;;;;;;;;;27.63;37.76;101060.24;105229;1299;62174;-81
2022/07/13 04:30:19;;;;;;;;;;;;;;;27.63;37.73;101062.19;105219;1299;62114;-81
2022/07/13 04:32:45;;;;;;;;;;;;;;;27.63;37.60;101063.60;105190;1300;62053;-81
2022/07/13 04:35:11;;;;;;;;;;;;;;;27.63;37.51;101065.10;105196;1300;62136;-81
2022/07/13 04:37:36;;;;;;;;;;;;;;;27.63;37.40;101067.38;105253;1300;62175;-81
2022/07/13 04:40:02;;;;;;;;;;;;;;;27.63;37.29;101063.11;105190;1300;63276;-81
2022/07/13 04:42:27;;;;;;;;;;;;;;;27.63;37.45;101058.57;105218;1299;62097;-81
2022/07/13 04:44:52;;;;;;;;;;;;;;;27.64;37.29;101058.16;105100;1299;62039;-81
2022/07/13 04:47:18;;;;;;;;;;;;;;;27.63;37.30;101061.44;105235;1299;62027;-81
2022/07/13 04:49:44;;;;;;;;;;;;;;;27.64;37.13;101063.59;105258;1301;62081;-81
2022/07/13 04:52:10;;;;;;;;;;;;;;;27.64;37.12;101061.73;105195;1302;73151;-81
2022/07/13 04:54:36;;;;;;;;;;;;;;;27.64;37.10;101058.82;105117;1302;62075;-81
2022/07/13 04:57:01;;;;;;;;;;;;;;;27.65;37.15;101057.98;105177;1302;62118;-81
2022/07/13 04:59:27;;;;;;;;;;;;;;;27.66;37.04;101056.61;104873;1303;62326;-81
2022/07/13 05:01:53;;;;;;;;;;;;;;;27.68;36.94;101059.58;105172;1301;62093;-81
2022/07/13 05:04:18;;;;;;;;;;;;;;;27.68;36.71;101064.63;105145;1302;62054;-81
2022/07/13 05:06:44;;;;;;;;;;;;;;;27.68;36.79;101069.45;105227;1302;62058;-81
2022/07/13 05:09:09;;;;;;;;;;;;;;;27.69;36.70;101075.18;105109;1302;62165;-82
2022/07/13 05:11:35;;;;;;;;;;;;;;;27.68;36.57;101069.79;105217;1302;63175;-81
2022/07/13 05:14:00;;;;;;;;;;;;;;;27.68;36.53;101069.08;105177;1301;62110;-81
2022/07/13 05:16:26;;;;;;;;;;;;;;;27.69;36.52;101066.33;105081;1302;62103;-81
2022/07/13 05:18:52;;;;;;;;;;;;;;;27.69;36.41;101066.86;105220;1302;62129;-81
2022/07/13 05:21:17;;;;;;;;;;;;;;;27.69;36.66;101063.94;105208;1301;62079;-81
2022/07/13 05:23:43;;;;;;;;;;;;;;;27.69;36.46;101061.77;105234;1301;62088;-81
2022/07/13 05:26:08;;;;;;;;;;;;;;;27.70;36.38;101057.40;105095;1302;62028;-81
2022/07/13 05:28:34;;;;;;;;;;;;;;;27.69;36.24;101052.17;105165;1300;62107;-81
2022/07/13 05:30:59;;;;;;;;;;;;;;;27.69;36.07;101054.71;104962;1302;63274;-81
2022/07/13 05:33:25;;;;;;;;;;;;;;;27.70;36.19;101052.31;105141;1302;61972;-81
2022/07/13 05:35:50;;;;;;;;;;;;;;;27.69;36.14;101054.34;105215;1301;62055;-81
2022/07/13 05:38:16;;;;;;;;;;;;;;;27.69;36.04;101056.14;105175;1301;62084;-81
2022/07/13 05:40:41;;;;;;;;;;;;;;;27.69;36.05;101052.00;104882;1302;62176;-81
2022/07/13 05:43:07;;;;;;;;;;;;;;;27.70;35.93;101055.91;104924;1303;62302;-81
2022/07/13 05:45:32;;;;;;;;;;;;;;;27.70;36.06;101052.84;105170;1302;62967;-81
2022/07/13 05:47:58;;;;;;;;;;;;;;;27.71;35.99;101051.86;105169;1301;62094;-81
2022/07/13 05:50:23;;;;;;;;;;;;;;;27.71;35.54;101048.23;105110;1302;61968;-81
2022/07/13 05:52:49;;;;;;;;;;;;;;;27.71;35.50;101047.66;105127;1302;62124;-81
2022/07/13 05:55:14;;;;;;;;;;;;;;;27.71;35.57;101046.77;105217;1301;62117;-81
2022/07/13 05:57:40;;;;;;;;;;;;;;;27.71;35.55;101045.86;105141;1302;62056;-81
2022/07/13 06:00:08;;;;;;;;;;;;;;;27.71;35.37;101047.26;105202;1302;62088;-81
2022/07/13 06:02:34;;;;;;;;;;;;;;;27.71;35.29;101047.11;105124;1301;74059;-81
2022/07/13 06:04:59;;;;;;;;;;;;;;;27.70;35.21;101042.84;105133;1301;62178;-81
2022/07/13 06:07:25;;;;;;;;;;;;;;;27.71;35.06;101039.35;105113;1302;62069;-81
2022/07/13 06:09:52;;;;;;;;;;;;;;;27.72;34.96;101039.67;105212;1302;61976;-81
2022/07/13 06:12:17;;;;;;;;;;;;;;;27.71;35.17;101034.30;105089;1302;62072;-81
2022/07/13 06:14:43;;;;;;;;;;;;;;;27.71;35.07;101034.81;105159;1302;62201;-81
2022/07/13 06:17:08;;;;;;;;;;;;;;;27.71;34.96;101033.92;105265;1302;62091;-81
2022/07/13 06:19:34;;;;;;;;;;;;;;;27.71;34.87;101037.38;105227;1302;62087;-81
2022/07/13 06:21:59;;;;;;;;;;;;;;;27.71;34.75;101037.17;105216;1302;62101;-81
2022/07/13 06:24:25;;;;;;;;;;;;;;;27.70;34.78;101034.52;105133;1303;62184;-81
2022/07/13 06:26:50;;;;;;;;;;;;;;;27.69;34.76;101032.16;105097;1301;62178;-81
2022/07/13 06:29:16;;;;;;;;;;;;;;;27.68;34.59;101032.58;104426;1302;1099758;-81
2022/07/13 06:31:42;;;;;;;;;;;;;;;27.68;34.79;101033.28;105185;1298;62100;-81
2022/07/13 06:34:07;;;;;;;;;;;;;;;27.69;34.62;101031.81;104882;1302;62070;-81
2022/07/13 06:36:34;;;;;;;;;;;;;;;27.69;34.66;101032.13;104882;1303;62111;-81
2022/07/13 06:39:00;;;;;;;;;;;;;;;27.70;34.48;101032.08;105071;1302;61969;-81
2022/07/13 06:41:26;;;;;;;;;;;;;;;27.70;34.46;101038.70;105101;1302;62085;-81
2022/07/13 06:43:51;;;;;;;;;;;;;;;27.68;34.31;101037.11;105039;1302;62121;-81
2022/07/13 06:46:16;;;;;;;;;;;;;;;27.66;34.23;101037.91;105099;1300;61973;-81
2022/07/13 06:48:42;;;;;;;;;;;;;;;27.62;33.80;101041.45;105122;1300;62212;-81
2022/07/13 06:51:07;;;;;;;;;;;;;;;27.60;34.18;101044.72;105135;1302;62737;-81
2022/07/13 06:53:33;;;;;;;;;;;;;;;27.60;33.77;101044.92;105016;1300;63794;-81
2022/07/13 06:55:59;;;;;;;;;;;;;;;27.60;33.87;101042.92;105222;1300;62152;-81
2022/07/13 06:58:24;;;;;;;;;;;;;;;27.59;33.74;101038.98;105171;1299;62090;-81
2022/07/13 07:00:50;;;;;;;;;;;;;;;27.58;33.89;101041.11;105198;1300;62026;-81
2022/07/13 07:03:15;;;;;;;;;;;;;;;27.57;33.73;101046.45;105216;1299;62052;-81
2022/07/13 07:05:41;;;;;;;;;;;;;;;27.56;33.64;101044.59;105198;1298;62202;-81
2022/07/13 07:08:07;;;;;;;;;;;;;;;27.52;33.56;101042.63;105163;1300;63937;-81
2022/07/13 07:10:33;;;;;;;;;;;;;;;27.49;33.34;101046.35;105177;1299;62194;-83
2022/07/13 07:12:58;;;;;;;;;;;;;;;27.40;33.17;101050.08;105165;1301;62055;-82
2022/07/13 07:15:23;;;;;;;;;;;;;;;27.36;33.11;101047.37;104897;1300;62081;-81
2022/07/13 07:17:49;;;;;;;;;;;;;;;27.32;32.84;101050.98;105030;1302;62690;-81
2022/07/13 07:20:14;;;;;;;;;;;;;;;27.26;32.86;101053.02;104995;1299;62059;-81
2022/07/13 07:22:40;;;;;;;;;;;;;;;27.22;32.48;101050.24;105016;1299;61879;-81
2022/07/13 07:25:07;;;;;;;;;;;;;;;27.24;32.86;101053.89;104948;1302;62216;-81
2022/07/13 07:27:32;;;;;;;;;;;;;;;27.27;32.85;101054.52;104885;1301;62088;-81
2022/07/13 07:29:58;;;;;;;;;;;;;;;27.30;32.62;101058.91;105069;1300;62037;-81
2022/07/13 07:32:24;;;;;;;;;;;;;;;27.33;32.63;101054.88;105087;1300;62084;-81
2022/07/13 07:34:49;;;;;;;;;;;;;;;27.36;32.49;101058.54;105095;1302;62047;-81
2022/07/13 07:37:15;;;;;;;;;;;;;;;27.37;32.40;101057.73;105081;1302;62091;-81
2022/07/13 07:39:40;;;;;;;;;;;;;;;27.37;32.43;101059.40;105061;1300;76435;-81
2022/07/13 07:42:06;;;;;;;;;;;;;;;27.36;32.25;101057.09;105095;1301;62059;-81
2022/07/13 07:44:31;;;;;;;;;;;;;;;27.38;32.35;101060.36;105098;1300;62751;-81
2022/07/13 07:46:57;;;;;;;;;;;;;;;27.36;32.25;101060.36;105101;1299;62172;-81
2022/07/13 07:49:22;;;;;;;;;;;;;;;27.35;32.03;101056.70;104999;1302;62223;-81
2022/07/13 07:51:48;;;;;;;;;;;;;;;27.36;32.23;101055.63;104958;1299;75716;-81
2022/07/13 07:54:13;;;;;;;;;;;;;;;27.39;32.19;101051.63;105133;1300;62025;-81
2022/07/13 07:56:39;;;;;;;;;;;;;;;27.40;31.98;101047.13;105188;1299;62115;-82
2022/07/13 07:59:04;;;;;;;;;;;;;;;27.41;31.98;101049.19;105110;1300;62126;-81
2022/07/13 08:01:30;;;;;;;;;;;;;;;27.41;31.80;101048.85;104980;1300;62029;-81
2022/07/13 08:03:55;;;;;;;;;;;;;;;27.41;31.74;101043.45;105090;1300;62069;-81
2022/07/13 08:06:21;;;;;;;;;;;;;;;27.43;31.97;101045.27;105173;1299;62063;-81
2022/07/13 08:08:46;;;;;;;;;;;;;;;27.46;31.81;101043.01;105211;1300;62147;-81
2022/07/13 08:11:16;;;;;;;;;;;;;;;27.48;31.87;101041.05;104940;1302;62084;-81
2022/07/13 08:13:42;;;;;;;;;;;;;;;27.49;32.09;101037.13;105106;1300;75356;-81
2022/07/13 08:16:08;;;;;;;;;;;;;;;27.51;31.99;101035.88;105126;1299;62109;-82
2022/07/13 08:18:33;;;;;;;;;;;;;;;27.53;32.02;101037.67;105102;1302;62059;-82
2022/07/13 08:20:58;;;;;;;;;;;;;;;27.53;31.75;101036.86;104927;1302;62116;-82
2022/07/13 08:26:08;;;;;;;;;;;;;;;27.55;31.75;101035.40;105006;1299;75421;-81
2022/07/13 08:28:34;;;;;;;;;;;;;;;27.57;31.96;101031.43;105106;1300;62049;-81
2022/07/13 08:30:59;;;;;;;;;;;;;;;27.58;31.89;101030.60;105029;1299;62934;-81
2022/07/13 08:38:53;;;;;;;;;;;;;;;27.55;31.63;101028.56;105170;1299;62060;-82
2022/07/13 08:41:19;;;;;;;;;;;;;;;27.54;31.49;101024.13;105106;1299;62073;-81
2022/07/13 08:43:44;;;;;;;;;;;;;;;27.54;31.74;101016.69;105064;1300;62192;-81
2022/07/13 08:46:10;;;;;;;;;;;;;;;27.56;31.51;101023.08;105052;1300;62175;-81
2022/07/13 08:48:37;;;;;;;;;;;;;;;27.54;31.53;101014.98;105070;1299;62042;-81
2022/07/13 08:51:04;;;;;;;;;;;;;;;27.50;31.21;101013.55;104948;1299;61995;-81
2022/07/13 08:53:29;;;;;;;;;;;;;;;27.49;31.39;101012.58;104931;1300;62126;-81
2022/07/13 08:55:56;;;;;;;;;;;;;;;27.49;31.18;101003.11;105102;1297;60835;-81
2022/07/13 08:58:22;;;;;;;;;;;;;;;27.51;31.15;101005.67;105159;1299;62075;-81
2022/07/13 09:00:48;;;;;;;;;;;;;;;27.53;31.16;101010.18;105133;1300;62155;-81
2022/07/13 09:03:14;;;;;;;;;;;;;;;27.51;30.85;101009.45;105051;1302;62183;-81
2022/07/13 09:05:39;;;;;;;;;;;;;;;27.50;30.89;101007.94;105202;1302;62146;-82
2022/07/13 09:08:05;;;;;;;;;;;;;;;27.51;30.91;101003.45;104862;1302;62094;-82
2022/07/13 09:10:31;;;;;;;;;;;;;;;27.52;30.67;101001.20;105124;1300;62107;-82
2022/07/13 09:12:57;;;;;;;;;;;;;;;27.48;30.63;100998.20;105093;1302;61941;-82
2022/07/13 09:15:23;;;;;;;;;;;;;;;27.46;30.33;100996.70;105326;1302;62223;-81
2022/07/13 09:17:49;;;;;;;;;;;;;;;27.46;30.40;100990.73;105173;1302;62155;-81
2022/07/13 09:20:15;;;;;;;;;;;;;;;27.46;30.17;100989.92;105147;1301;62168;-81
2022/07/13 09:22:50;;;;;;;;;;;;;;;27.43;30.01;100995.91;105190;1301;63081;-81
2022/07/13 09:25:33;;;;;;;;;;;;;;;27.40;30.02;101000.88;105176;1302;62091;-81
2022/07/13 09:28:09;;;;;;;;;;;;;;;27.36;29.57;100996.73;105104;1302;72787;-81
2022/07/13 09:30:35;;;;;;;;;;;;;;;27.34;29.55;100993.48;105086;1302;76556;-82
2022/07/13 09:33:00;;;;;;;;;;;;;;;27.33;29.29;100991.63;105054;1301;63995;-81
2022/07/13 09:35:45;;;;;;;;;;;;;;;27.28;29.08;100993.70;105022;1302;62122;-81
2022/07/13 09:38:27;;;;;;;;;;;;;;;27.31;29.59;100990.58;105145;1302;72803;-81
2022/07/13 09:40:53;;;;;;;;;;;;;;;27.34;29.50;100994.80;105084;1302;75489;-81
2022/07/13 09:46:11;;;;;;;;;;;;;;;27.40;29.69;100987.02;105069;1302;63252;-81
2022/07/13 09:48:37;;;;;;;;;;;;;;;27.42;29.41;100981.93;105089;1302;72777;-81
2022/07/13 09:51:04;;;;;;;;;;;;;;;27.43;29.39;100988.67;105185;1301;75555;-81
2022/07/13 09:53:30;;;;;;;;;;;;;;;27.43;29.31;100981.45;105146;1302;62130;-82
2022/07/13 09:55:57;;;;;;;;;;;;;;;27.42;29.03;100980.67;105043;1302;62197;-81
2022/07/13 09:58:29;;;;;;;;;;;;;;;27.38;29.02;100984.63;104894;1302;62051;-81
2022/07/13 10:00:56;;;;;;;;;;;;;;;27.37;28.84;100978.80;104966;1302;76366;-81
2022/07/13 10:03:23;;;;;;;;;;;;;;;27.37;28.92;100982.36;104988;1302;61942;-81
2022/07/13 10:05:50;;;;;;;;;;;;;;;27.38;28.82;100975.30;105021;1302;64390;-81
2022/07/13 10:08:16;;;;;;;;;;;;;;;27.39;29.11;100969.16;104878;1302;62088;-81
2022/07/13 10:10:41;;;;;;;;;;;;;;;27.41;29.18;100966.44;104941;1302;62064;-81
2022/07/13 10:13:07;;;;;;;;;;;;;;;27.43;29.03;100961.89;105093;1302;62068;-81
2022/07/13 10:15:33;;;;;;;;;;;;;;;27.46;29.03;100964.96;105091;1301;62062;-81
2022/07/13 10:17:59;;;;;;;;;;;;;;;27.45;28.96;100962.84;104900;1302;62069;-82
2022/07/13 10:20:25;;;;;;;;;;;;;;;27.47;28.94;100956.52;104955;1302;62026;-81
2022/07/13 10:22:50;;;;;;;;;;;;;;;27.49;28.87;100957.23;105067;1302;62053;-81
2022/07/13 10:25:16;;;;;;;;;;;;;;;27.50;28.91;100956.19;104928;1302;62242;-81
2022/07/13 10:27:41;;;;;;;;;;;;;;;27.48;28.73;100961.25;105018;1302;61954;-81
2022/07/13 10:30:27;;;;;;;;;;;;;;;27.48;28.70;100953.17;105081;1302;61942;-81
2022/07/13 10:32:53;;;;;;;;;;;;;;;27.51;28.82;100947.65;105041;1302;75769;-81
2022/07/13 10:35:20;;;;;;;;;;;;;;;27.53;28.88;100943.29;105172;1303;62026;-81
2022/07/13 10:38:03;;;;;;;;;;;;;;;27.55;29.06;100942.18;104921;1303;62077;-81
2022/07/13 10:40:32;;;;;;;;;;;;;;;27.56;29.01;100933.36;105119;1302;73897;-82
2022/07/13 10:42:59;;;;;;;;;;;;;;;27.59;29.19;100936.94;105012;1303;75742;-82
2022/07/13 10:45:32;;;;;;;;;;;;;;;27.59;29.15;100934.86;104855;1303;62800;-82
2022/07/13 10:47:58;;;;;;;;;;;;;;;27.61;29.08;100936.70;105060;1303;62050;-82
2022/07/13 10:50:34;;;;;;;;;;;;;;;27.62;29.11;100936.48;104980;1302;61950;-82
2022/07/13 10:53:00;;;;;;;;;;;;;;;27.63;29.40;100932.73;104907;1303;75781;-82
2022/07/13 10:55:30;;;;;;;;;;;;;;;27.65;29.42;100922.11;104886;1303;62074;-83
2022/07/13 10:57:55;;;;;;;;;;;;;;;27.66;29.45;100925.75;104914;1302;62077;-82
2022/07/13 11:00:24;;;;;;;;;;;;;;;27.67;29.61;100922.59;104925;1303;62066;-82
2022/07/13 11:02:54;;;;;;;;;;;;;;;27.68;29.56;100919.20;105001;1303;76379;-82
2022/07/13 11:05:21;;;;;;;;;;;;;;;27.69;29.76;100917.16;105176;1299;61942;-82
2022/07/13 11:07:48;;;;;;;;;;;;;;;27.69;29.69;100920.53;105142;1300;62104;-82
2022/07/13 11:10:30;;;;;;;;;;;;;;;27.70;29.79;100920.09;105005;1300;62048;-82
2022/07/13 11:12:57;;;;;;;;;;;;;;;27.71;30.01;100919.45;105233;1299;74405;-82
2022/07/13 11:15:23;;;;;;;;;;;;;;;27.72;29.92;100919.90;105229;1300;62060;-82
2022/07/13 11:17:55;;;;;;;;;;;;;;;27.73;29.96;100916.76;105108;1303;62135;-82
2022/07/13 11:20:21;;;;;;;;;;;;;;;27.73;30.34;100914.39;105145;1301;73733;-82
2022/07/13 11:25:46;;;;;;;;;;;;;;;27.74;30.34;100908.69;105090;1302;61979;-82
2022/07/13 11:28:17;;;;;;;;;;;;;;;27.74;30.54;100899.11;105245;1300;62014;-82
2022/07/13 11:30:43;;;;;;;;;;;;;;;27.75;30.77;100896.64;105195;1301;72958;-83
2022/07/13 11:33:12;;;;;;;;;;;;;;;27.75;30.63;100892.06;105082;1302;62086;-83
2022/07/13 11:35:38;;;;;;;;;;;;;;;27.76;30.75;100886.60;105115;1302;62965;-83
2022/07/13 11:38:05;;;;;;;;;;;;;;;27.77;30.98;100890.86;105124;1302;62063;-83
2022/07/13 11:40:31;;;;;;;;;;;;;;;27.77;31.09;100880.56;105184;1302;62185;-83
2022/07/13 11:43:00;;;;;;;;;;;;;;;27.78;31.15;100880.29;105069;1302;62200;-83
2022/07/13 11:45:26;;;;;;;;;;;;;;;27.79;31.15;100880.23;104888;1302;62896;-82
2022/07/13 11:47:54;;;;;;;;;;;;;;;27.79;31.28;100886.65;105050;1300;61981;-81
2022/07/13 11:50:20;;;;;;;;;;;;;;;27.80;31.46;100885.14;105182;1300;73340;-82
2022/07/13 11:52:45;;;;;;;;;;;;;;;27.80;31.36;100881.14;104979;1300;64263;-81
2022/07/13 11:55:11;;;;;;;;;;;;;;;27.81;31.46;100881.61;104967;1300;62175;-81
2022/07/13 11:57:37;;;;;;;;;;;;;;;27.82;31.62;100876.80;104928;1300;62107;-81
2022/07/13 12:00:04;;;;;;;;;;;;;;;27.83;31.54;100881.77;104986;1299;62027;-81
2022/07/13 12:02:29;;;;;;;;;;;;;;;27.83;31.54;100874.15;104987;1299;72984;-82
2022/07/13 12:04:55;;;;;;;;;;;;;;;27.84;31.52;100873.76;105003;1299;61403;-81
2022/07/13 12:07:23;;;;;;;;;;;;;;;27.85;31.75;100874.52;105046;1300;62097;-83
2022/07/13 12:09:55;;;;;;;;;;;;;;;27.86;31.69;100867.42;105105;1298;60515;-82
2022/07/13 12:12:22;;;;;;;;;;;;;;;27.87;32.08;100863.34;104989;1299;74052;-82
2022/07/13 12:14:48;;;;;;;;;;;;;;;27.88;32.09;100867.56;105454;1299;76072;-82
2022/07/13 12:17:14;;;;;;;;;;;;;;;27.89;32.03;100865.23;105131;1300;60941;-82
2022/07/13 12:19:40;;;;;;;;;;;;;;;27.91;32.00;100866.70;105165;1300;62264;-82
2022/07/13 12:22:06;;;;;;;;;;;;;;;27.92;32.06;100859.69;105090;1300;62089;-82
2022/07/13 12:24:32;;;;;;;;;;;;;;;27.94;32.01;100851.58;105187;1299;62052;-81
2022/07/13 12:26:57;;;;;;;;;;;;;;;27.95;32.18;100855.42;105237;1300;62207;-82
2022/07/13 12:29:30;;;;;;;;;;;;;;;27.97;32.32;100855.48;105281;1300;62104;-83
2022/07/13 12:31:56;;;;;;;;;;;;;;;27.98;32.29;100855.02;105354;1299;61727;-82
2022/07/13 12:34:22;;;;;;;;;;;;;;;27.99;32.40;100856.54;105128;1299;62205;-82